createdAt,value
2023-04-01T00:01:10.722Z,11.78
2023-04-01T00:03:38.247Z,11.77
2023-04-01T00:06:04.866Z,11.81
2023-04-01T00:08:31.420Z,12.00
2023-04-01T00:10:58.487Z,11.94
2023-04-01T00:13:27.459Z,11.83
2023-04-01T00:15:56.211Z,11.78
2023-04-01T00:18:23.887Z,11.73
2023-04-01T00:20:52.919Z,11.78
2023-04-01T00:23:20.390Z,11.72
2023-04-01T00:25:48.888Z,11.81
2023-04-01T00:28:19.173Z,11.70
2023-04-01T00:30:45.621Z,11.85
2023-04-01T00:33:12.576Z,11.72
2023-04-01T00:35:40.615Z,11.78
2023-04-01T00:38:07.530Z,11.90
2023-04-01T00:40:37.496Z,11.61
2023-04-01T00:43:11.390Z,11.65
2023-04-01T00:45:40.821Z,11.83
2023-04-01T00:48:12.510Z,11.64
2023-04-01T00:50:43.257Z,11.81
2023-04-01T00:53:10.541Z,11.70
2023-04-01T00:55:42.007Z,11.93
2023-04-01T00:58:14.557Z,11.78
2023-04-01T01:00:41.427Z,11.66
2023-04-01T01:03:08.493Z,11.65
2023-04-01T01:06:03.967Z,11.69
2023-04-01T01:08:51.844Z,11.63
2023-04-01T01:11:26.599Z,11.50
2023-04-01T01:14:06.514Z,11.48
2023-04-01T01:16:41.933Z,11.69
2023-04-01T01:19:23.923Z,11.46
2023-04-01T01:22:21.090Z,11.64
2023-04-01T01:25:07.190Z,11.52
2023-04-01T01:27:36.887Z,11.40
2023-04-01T01:30:18.077Z,11.69
2023-04-01T01:32:54.199Z,11.54
2023-04-01T01:35:32.736Z,11.62
2023-04-01T01:38:06.580Z,11.59
2023-04-01T01:40:35.501Z,11.64
2023-04-01T01:43:09.340Z,11.54
2023-04-01T01:45:40.188Z,11.53
2023-04-01T01:48:10.156Z,11.52
2023-04-01T01:50:38.156Z,11.44
2023-04-01T01:53:11.062Z,11.42
2023-04-01T01:55:40.651Z,11.48
2023-04-01T01:58:20.517Z,11.44
2023-04-01T02:00:54.588Z,11.43
2023-04-01T02:03:22.835Z,11.34
2023-04-01T02:05:53.037Z,11.50
2023-04-01T02:08:25.631Z,11.43
2023-04-01T02:11:06.592Z,11.31
2023-04-01T02:13:45.336Z,11.40
2023-04-01T02:16:22.176Z,11.35
2023-04-01T02:18:54.106Z,11.31
2023-04-01T02:21:22.217Z,11.44
2023-04-01T02:23:50.171Z,11.26
2023-04-01T02:26:17.376Z,11.38
2023-04-01T02:28:47.462Z,11.40
2023-04-01T02:31:15.854Z,11.34
2023-04-01T02:33:43.557Z,11.44
2023-04-01T02:36:17.014Z,11.35
2023-04-01T02:38:46.077Z,11.25
2023-04-01T02:41:12.643Z,11.35
2023-04-01T02:43:39.097Z,11.36
2023-04-01T02:46:07.551Z,11.19
2023-04-01T02:48:33.987Z,11.41
2023-04-01T02:51:00.335Z,11.45
2023-04-01T02:53:26.820Z,11.29
2023-04-01T02:55:53.318Z,11.27
2023-04-01T02:58:20.133Z,11.28
2023-04-01T03:00:46.597Z,11.40
2023-04-01T03:03:14.574Z,11.37
2023-04-01T03:05:41.118Z,11.43
2023-04-01T03:08:07.579Z,11.39
2023-04-01T03:10:34.003Z,11.53
2023-04-01T03:13:00.453Z,11.37
2023-04-01T03:15:26.865Z,11.48
2023-04-01T03:17:53.366Z,11.39
2023-04-01T03:20:20.363Z,11.36
2023-04-01T03:22:47.720Z,11.55
2023-04-01T03:25:14.223Z,11.21
2023-04-01T03:27:40.658Z,11.37
2023-04-01T03:30:07.688Z,11.41
2023-04-01T03:32:34.626Z,11.61
2023-04-01T03:35:01.069Z,11.51
2023-04-01T03:37:27.705Z,11.40
2023-04-01T03:39:54.153Z,11.31
2023-04-01T03:42:20.724Z,11.28
2023-04-01T03:44:47.119Z,11.41
2023-04-01T03:47:13.583Z,11.34
2023-04-01T03:49:39.986Z,11.10
2023-04-01T03:52:10.586Z,11.39
2023-04-01T03:54:37.046Z,11.37
2023-04-01T03:57:03.740Z,11.22
2023-04-01T03:59:30.258Z,11.34
2023-04-01T04:01:56.614Z,11.38
2023-04-01T04:04:23.068Z,11.30
2023-04-01T04:06:49.522Z,11.26
2023-04-01T04:09:15.975Z,11.12
2023-04-01T04:11:42.344Z,11.20
2023-04-01T04:14:08.731Z,11.18
2023-04-01T04:16:38.238Z,11.07
2023-04-01T04:19:04.993Z,11.13
2023-04-01T04:21:31.475Z,11.02
2023-04-01T04:23:59.856Z,11.11
2023-04-01T04:26:26.764Z,11.06
2023-04-01T04:28:53.110Z,11.18
2023-04-01T04:31:21.658Z,11.19
2023-04-01T04:33:48.338Z,10.88
2023-04-01T04:36:14.986Z,10.93
2023-04-01T04:38:41.547Z,11.00
2023-04-01T04:41:15.953Z,11.07
2023-04-01T04:43:42.583Z,11.17
2023-04-01T04:46:10.308Z,11.07
2023-04-01T04:48:37.499Z,10.87
2023-04-01T04:51:04.247Z,11.03
2023-04-01T04:53:30.686Z,10.92
2023-04-01T04:55:57.062Z,11.11
2023-04-01T04:58:23.557Z,11.08
2023-04-01T05:00:50.050Z,11.18
2023-04-01T05:03:16.619Z,11.00
2023-04-01T05:05:50.566Z,11.01
2023-04-01T05:08:16.977Z,10.95
2023-04-01T05:10:43.383Z,10.93
2023-04-01T05:15:38.322Z,10.92
2023-04-01T05:18:04.867Z,10.93
2023-04-01T05:20:31.250Z,10.86
2023-04-01T05:22:58.864Z,10.76
2023-04-01T05:25:25.342Z,10.98
2023-04-01T05:27:52.119Z,11.12
2023-04-01T05:30:19.078Z,11.15
2023-04-01T05:32:45.684Z,10.94
2023-04-01T05:35:12.135Z,10.78
2023-04-01T05:37:38.540Z,11.00
2023-04-01T05:40:05.750Z,10.89
2023-04-01T05:42:32.234Z,10.98
2023-04-01T05:44:58.656Z,11.00
2023-04-01T05:47:25.087Z,10.86
2023-04-01T05:49:51.475Z,10.97
2023-04-01T05:52:17.892Z,11.11
2023-04-01T05:54:44.286Z,11.11
2023-04-01T05:57:10.808Z,11.10
2023-04-01T05:59:37.232Z,11.06
2023-04-01T06:02:03.730Z,11.10
2023-04-01T06:04:38.224Z,11.17
2023-04-01T06:07:15.264Z,11.18
2023-04-01T06:09:43.011Z,11.22
2023-04-01T06:12:28.250Z,11.03
2023-04-01T06:15:36.011Z,11.11
2023-04-01T06:18:37.036Z,11.07
2023-04-01T06:21:32.713Z,11.02
2023-04-01T06:24:27.531Z,10.97
2023-04-01T06:27:14.442Z,10.89
2023-04-01T06:29:55.868Z,10.98
2023-04-01T06:32:59.629Z,11.06
2023-04-01T06:35:39.455Z,11.13
2023-04-01T06:38:06.040Z,11.14
2023-04-01T06:41:11.539Z,11.16
2023-04-01T06:44:00.983Z,11.19
2023-04-01T06:46:35.780Z,11.11
2023-04-01T06:49:17.024Z,11.20
2023-04-01T06:51:49.009Z,11.36
2023-04-01T06:54:38.399Z,11.26
2023-04-01T06:57:19.918Z,11.46
2023-04-01T06:59:46.646Z,11.57
2023-04-01T07:02:20.744Z,11.74
2023-04-01T07:04:53.680Z,11.63
2023-04-01T07:07:43.049Z,11.74
2023-04-01T07:10:20.895Z,11.87
2023-04-01T07:13:01.406Z,11.75
2023-04-01T07:15:48.670Z,11.78
2023-04-01T07:18:33.467Z,11.99
2023-04-01T07:21:00.971Z,11.96
2023-04-01T07:23:33.884Z,11.91
2023-04-01T07:26:05.034Z,11.95
2023-04-01T07:28:35.069Z,11.94
2023-04-01T07:31:21.099Z,11.93
2023-04-01T07:33:53.215Z,11.89
2023-04-01T07:36:45.775Z,12.06
2023-04-01T07:39:30.417Z,12.14
2023-04-01T07:42:04.690Z,12.12
2023-04-01T07:44:55.433Z,12.16
2023-04-01T07:47:30.905Z,12.29
2023-04-01T07:50:12.610Z,12.05
2023-04-01T07:52:56.182Z,12.18
2023-04-01T07:55:31.135Z,12.10
2023-04-01T07:58:33.049Z,12.21
2023-04-01T08:01:02.507Z,12.05
2023-04-01T08:04:06.482Z,12.16
2023-04-01T08:06:45.809Z,12.13
2023-04-01T08:09:38.900Z,12.22
2023-04-01T08:12:13.421Z,12.04
2023-04-01T08:15:05.288Z,12.09
2023-04-01T08:17:41.517Z,12.35
2023-04-01T08:20:20.318Z,12.09
2023-04-01T08:22:51.921Z,12.30
2023-04-01T08:25:26.568Z,12.33
2023-04-01T08:28:15.344Z,12.26
2023-04-01T08:31:02.241Z,12.44
2023-04-01T08:33:31.104Z,12.72
2023-04-01T08:36:03.377Z,12.62
2023-04-01T08:38:35.904Z,12.79
2023-04-01T08:41:11.261Z,12.78
2023-04-01T08:43:52.372Z,12.89
2023-04-01T08:46:41.901Z,12.80
2023-04-01T08:49:34.277Z,12.70
2023-04-01T08:52:27.901Z,12.77
2023-04-01T08:55:27.317Z,12.83
2023-04-01T08:58:02.746Z,12.83
2023-04-01T09:00:47.994Z,12.67
2023-04-01T09:03:45.613Z,12.62
2023-04-01T09:06:46.296Z,12.59
2023-04-01T09:09:24.949Z,12.63
2023-04-01T09:12:23.498Z,12.61
2023-04-01T09:15:01.676Z,12.81
2023-04-01T09:17:56.864Z,13.00
2023-04-01T09:21:13.896Z,13.04
2023-04-01T09:23:55.241Z,13.16
2023-04-01T09:26:37.077Z,13.46
2023-04-01T09:29:18.755Z,13.55
2023-04-01T09:32:08.401Z,13.37
2023-04-01T09:34:55.635Z,13.59
2023-04-01T09:37:30.618Z,13.59
2023-04-01T09:40:19.420Z,13.50
2023-04-01T09:43:02.083Z,13.58
2023-04-01T09:45:43.655Z,13.45
2023-04-01T09:48:25.968Z,13.61
2023-04-01T09:51:24.869Z,13.33
2023-04-01T09:54:18.412Z,13.45
2023-04-01T09:57:06.328Z,13.48
2023-04-01T09:59:50.839Z,13.42
2023-04-01T10:02:29.331Z,13.57
2023-04-01T10:05:37.266Z,13.66
2023-04-01T10:08:13.902Z,13.55
2023-04-01T10:10:58.984Z,13.39
2023-04-01T10:13:43.424Z,13.45
2023-04-01T10:16:12.784Z,13.60
2023-04-01T10:18:54.196Z,13.50
2023-04-01T10:21:32.764Z,13.33
2023-04-01T10:24:28.903Z,13.13
2023-04-01T10:27:23.419Z,13.33
2023-04-01T10:30:23.887Z,13.26
2023-04-01T10:33:20.046Z,13.41
2023-04-01T10:36:18.727Z,13.26
2023-04-01T10:39:04.826Z,13.15
2023-04-01T10:42:13.813Z,13.05
2023-04-01T10:45:17.545Z,13.04
2023-04-01T10:48:17.585Z,13.23
2023-04-01T10:51:02.471Z,13.35
2023-04-01T10:53:44.163Z,13.45
2023-04-01T10:56:37.004Z,13.30
2023-04-01T10:59:09.550Z,13.48
2023-04-01T11:02:04.007Z,13.37
2023-04-01T11:05:01.937Z,13.41
2023-04-01T11:07:31.135Z,13.42
2023-04-01T11:10:22.550Z,13.52
2023-04-01T11:13:05.415Z,13.52
2023-04-01T11:15:50.328Z,13.32
2023-04-01T11:18:25.894Z,13.57
2023-04-01T11:21:10.450Z,13.39
2023-04-01T11:24:09.835Z,13.41
2023-04-01T11:26:46.023Z,13.55
2023-04-01T11:29:19.985Z,13.40
2023-04-01T11:31:59.783Z,13.73
2023-04-01T11:34:48.039Z,13.58
2023-04-01T11:37:23.400Z,13.79
2023-04-01T11:40:08.455Z,13.84
2023-04-01T11:42:55.379Z,13.98
2023-04-01T11:45:40.723Z,13.97
2023-04-01T11:48:23.390Z,14.09
2023-04-01T11:51:21.015Z,14.19
2023-04-01T11:54:16.687Z,13.88
2023-04-01T11:57:00.393Z,14.07
2023-04-01T11:59:45.627Z,13.98
2023-04-01T12:02:26.382Z,14.03
2023-04-01T12:04:59.602Z,13.94
2023-04-01T12:07:45.956Z,13.95
2023-04-01T12:10:27.065Z,14.00
2023-04-01T12:13:17.524Z,13.75
2023-04-01T12:15:55.017Z,13.78
2023-04-01T12:18:43.675Z,13.50
2023-04-01T12:21:19.629Z,13.47
2023-04-01T12:24:23.622Z,13.48
2023-04-01T12:27:27.921Z,13.93
2023-04-01T12:30:07.331Z,13.77
2023-04-01T12:32:44.997Z,13.77
2023-04-01T12:35:54.102Z,13.93
2023-04-01T12:38:44.757Z,13.74
2023-04-01T12:41:38.067Z,13.76
2023-04-01T12:44:26.512Z,13.86
2023-04-01T12:47:05.151Z,13.86
2023-04-01T12:49:43.779Z,13.80
2023-04-01T12:52:12.933Z,13.57
2023-04-01T12:55:06.554Z,13.86
2023-04-01T12:57:47.050Z,13.85
2023-04-01T13:00:46.754Z,13.83
2023-04-01T13:03:20.391Z,13.96
2023-04-01T13:06:22.446Z,13.91
2023-04-01T13:09:25.947Z,13.95
2023-04-01T13:12:24.186Z,13.88
2023-04-01T13:15:10.065Z,13.63
2023-04-01T13:18:16.481Z,13.79
2023-04-01T13:21:00.839Z,13.99
2023-04-01T13:23:40.500Z,14.04
2023-04-01T13:26:14.974Z,14.03
2023-04-01T13:29:08.560Z,14.15
2023-04-01T13:32:00.303Z,14.00
2023-04-01T13:34:38.394Z,14.09
2023-04-01T13:37:19.769Z,14.21
2023-04-01T13:40:18.257Z,14.16
2023-04-01T13:42:51.508Z,14.07
2023-04-01T13:45:25.610Z,13.95
2023-04-01T13:48:29.703Z,14.02
2023-04-01T13:51:18.224Z,14.16
2023-04-01T13:54:05.987Z,14.09
2023-04-01T13:57:20.095Z,14.03
2023-04-01T14:00:20.464Z,13.89
2023-04-01T14:03:11.394Z,13.92
2023-04-01T14:05:59.386Z,13.66
2023-04-01T14:08:45.255Z,13.56
2023-04-01T14:11:16.119Z,13.75
2023-04-01T14:13:54.458Z,13.68
2023-04-01T14:16:34.607Z,13.72
2023-04-01T14:19:26.342Z,13.99
2023-04-01T14:22:05.502Z,14.06
2023-04-01T14:25:09.618Z,14.20
2023-04-01T14:27:44.828Z,13.96
2023-04-01T14:30:11.157Z,14.04
2023-04-01T14:32:57.297Z,14.19
2023-04-01T14:35:29.689Z,14.47
2023-04-01T14:38:21.087Z,14.23
2023-04-01T14:41:19.978Z,14.36
2023-04-01T14:44:31.227Z,14.80
2023-04-01T14:47:16.219Z,14.90
2023-04-01T14:49:46.874Z,14.82
2023-04-01T14:52:25.220Z,14.88
2023-04-01T14:54:53.453Z,14.85
2023-04-01T14:57:28.410Z,14.88
2023-04-01T15:00:10.957Z,14.62
2023-04-01T15:02:44.234Z,14.64
2023-04-01T15:05:28.405Z,14.63
2023-04-01T15:08:14.371Z,14.31
2023-04-01T15:11:01.094Z,14.38
2023-04-01T15:13:30.482Z,14.19
2023-04-01T15:16:24.241Z,14.30
2023-04-01T15:19:03.484Z,14.42
2023-04-01T15:22:00.381Z,14.29
2023-04-01T15:24:41.896Z,14.45
2023-04-01T15:27:22.523Z,14.38
2023-04-01T15:30:13.727Z,13.93
2023-04-01T15:32:51.892Z,13.89
2023-04-01T15:35:45.123Z,14.01
2023-04-01T15:38:20.625Z,14.02
2023-04-01T15:40:55.528Z,14.30
2023-04-01T15:43:45.656Z,14.28
2023-04-01T15:46:30.540Z,14.30
2023-04-01T15:49:16.642Z,14.47
2023-04-01T15:51:56.229Z,14.46
2023-04-01T15:54:28.601Z,14.49
2023-04-01T15:57:19.560Z,14.38
2023-04-01T16:00:07.381Z,14.30
2023-04-01T16:03:05.538Z,14.08
2023-04-01T16:05:53.241Z,14.29
2023-04-01T16:08:35.523Z,13.93
2023-04-01T16:11:19.789Z,13.97
2023-04-01T16:13:54.921Z,13.75
2023-04-01T16:16:36.659Z,13.74
2023-04-01T16:19:37.408Z,13.78
2023-04-01T16:22:31.869Z,13.69
2023-04-01T16:25:36.315Z,13.74
2023-04-01T16:28:29.118Z,13.71
2023-04-01T16:31:27.076Z,13.78
2023-04-01T16:34:03.476Z,13.69
2023-04-01T16:36:38.244Z,13.75
2023-04-01T16:39:41.867Z,13.67
2023-04-01T16:42:08.308Z,13.84
2023-04-01T16:44:57.835Z,13.68
2023-04-01T16:47:32.341Z,13.60
2023-04-01T16:50:21.384Z,13.55
2023-04-01T16:53:09.422Z,13.32
2023-04-01T16:55:51.962Z,13.31
2023-04-01T16:58:34.776Z,13.30
2023-04-01T17:01:10.932Z,13.34
2023-04-01T17:03:45.307Z,13.28
2023-04-01T17:06:40.518Z,13.10
2023-04-01T17:09:26.118Z,13.36
2023-04-01T17:11:58.097Z,13.16
2023-04-01T17:14:55.515Z,13.17
2023-04-01T17:17:33.904Z,13.15
2023-04-01T17:20:10.160Z,13.26
2023-04-01T17:23:02.703Z,13.41
2023-04-01T17:25:44.115Z,13.15
2023-04-01T17:28:31.538Z,13.25
2023-04-01T17:31:14.665Z,13.18
2023-04-01T17:33:47.843Z,13.04
2023-04-01T17:36:39.594Z,13.15
2023-04-01T17:39:16.436Z,12.89
2023-04-01T17:41:58.578Z,12.75
2023-04-01T17:44:44.286Z,12.77
2023-04-01T17:47:19.540Z,12.81
2023-04-01T17:49:48.867Z,12.72
2023-04-01T17:52:38.582Z,12.69
2023-04-01T17:55:27.472Z,12.67
2023-04-01T17:58:03.599Z,12.63
2023-04-01T18:00:54.722Z,12.46
2023-04-01T18:03:40.427Z,12.58
2023-04-01T18:06:15.300Z,12.71
2023-04-01T18:08:58.051Z,12.63
2023-04-01T18:11:42.645Z,12.43
2023-04-01T18:14:24.632Z,12.44
2023-04-01T18:16:55.367Z,12.44
2023-04-01T18:19:28.043Z,12.59
2023-04-01T18:22:15.724Z,12.54
2023-04-01T18:24:45.019Z,12.31
2023-04-01T18:27:30.465Z,12.31
2023-04-01T18:30:16.834Z,12.22
2023-04-01T18:32:43.189Z,12.16
2023-04-01T18:35:28.269Z,12.33
2023-04-01T18:38:20.623Z,12.22
2023-04-01T18:40:54.406Z,12.16
2023-04-01T18:43:47.946Z,12.12
2023-04-01T18:46:27.358Z,12.24
2023-04-01T18:49:21.605Z,12.13
2023-04-01T18:52:09.787Z,12.03
2023-04-01T18:55:05.680Z,11.96
2023-04-01T18:57:51.298Z,12.10
2023-04-01T19:00:26.009Z,12.10
2023-04-01T19:03:03.853Z,12.06
2023-04-01T19:05:43.276Z,11.97
2023-04-01T19:08:29.414Z,11.98
2023-04-01T19:11:15.586Z,12.20
2023-04-01T19:13:47.565Z,12.09
2023-04-01T19:16:40.002Z,12.00
2023-04-01T19:19:31.566Z,12.04
2023-04-01T19:22:00.361Z,11.88
2023-04-01T19:25:01.160Z,11.89
2023-04-01T19:27:38.287Z,11.89
2023-04-01T19:30:35.037Z,11.90
2023-04-01T19:33:35.852Z,11.94
2023-04-01T19:36:12.706Z,11.87
2023-04-01T19:38:49.667Z,11.89
2023-04-01T19:41:44.904Z,11.86
2023-04-01T19:44:42.230Z,11.84
2023-04-01T19:47:25.410Z,12.09
2023-04-01T19:50:11.572Z,11.93
2023-04-01T19:52:41.771Z,11.78
2023-04-01T19:55:14.132Z,11.73
2023-04-01T19:58:08.471Z,12.00
2023-04-01T20:00:40.397Z,12.18
2023-04-01T20:03:16.225Z,11.83
2023-04-01T20:05:57.719Z,11.82
2023-04-01T20:08:34.974Z,11.86
2023-04-01T20:11:36.527Z,11.89
2023-04-01T20:14:08.337Z,11.85
2023-04-01T20:16:57.265Z,11.67
2023-04-01T20:19:28.854Z,11.95
2023-04-01T20:22:00.493Z,11.77
2023-04-01T20:24:37.197Z,11.77
2023-04-01T20:27:10.925Z,11.81
2023-04-01T20:29:44.268Z,11.85
2023-04-01T20:32:30.843Z,11.78
2023-04-01T20:35:20.652Z,11.72
2023-04-01T20:37:58.790Z,11.50
2023-04-01T20:40:31.323Z,11.51
2023-04-01T20:43:34.656Z,11.70
2023-04-01T20:46:22.015Z,11.83
2023-04-01T20:49:11.642Z,11.56
2023-04-01T20:51:54.010Z,11.57
2023-04-01T20:54:43.422Z,11.48
2023-04-01T20:57:31.599Z,11.46
2023-04-01T21:00:19.525Z,11.37
2023-04-01T21:03:07.901Z,11.30
2023-04-01T21:05:56.809Z,11.33
2023-04-01T21:08:41.499Z,11.38
2023-04-01T21:11:32.960Z,11.32
2023-04-01T21:14:14.003Z,11.30
2023-04-01T21:16:58.301Z,11.45
2023-04-01T21:19:45.495Z,11.51
2023-04-01T21:22:21.062Z,11.57
2023-04-01T21:25:06.549Z,11.57
2023-04-01T21:27:37.868Z,11.61
2023-04-01T21:30:33.095Z,11.52
2023-04-01T21:33:31.367Z,11.58
2023-04-01T21:36:19.416Z,11.52
2023-04-01T21:39:00.227Z,11.53
2023-04-01T21:41:51.665Z,11.27
2023-04-01T21:44:33.169Z,11.33
2023-04-01T21:47:43.826Z,11.36
2023-04-01T21:50:40.564Z,11.19
2023-04-01T21:53:25.577Z,11.28
2023-04-01T21:56:07.085Z,11.35
2023-04-01T21:59:06.372Z,11.34
2023-04-01T22:01:42.040Z,11.44
2023-04-01T22:04:27.583Z,11.45
2023-04-01T22:07:06.155Z,11.52
2023-04-01T22:09:43.650Z,11.47
2023-04-01T22:12:25.615Z,11.40
2023-04-01T22:15:18.461Z,11.33
2023-04-01T22:17:50.397Z,11.53
2023-04-01T22:20:31.472Z,11.42
2023-04-01T22:23:08.255Z,11.37
2023-04-01T22:26:06.280Z,11.45
2023-04-01T22:28:36.108Z,11.54
2023-04-01T22:31:06.202Z,11.53
2023-04-01T22:33:54.148Z,11.46
2023-04-01T22:36:31.725Z,11.33
2023-04-01T22:39:22.978Z,11.34
2023-04-01T22:41:58.695Z,11.43
2023-04-01T22:44:54.109Z,11.31
2023-04-01T22:48:02.287Z,11.49
2023-04-01T22:50:35.032Z,11.45
2023-04-01T22:53:23.849Z,11.47
2023-04-01T22:55:53.298Z,11.38
2023-04-01T22:58:31.784Z,11.35
2023-04-01T23:01:31.634Z,11.40
2023-04-01T23:04:01.121Z,11.42
2023-04-01T23:06:37.570Z,11.49
2023-04-01T23:09:13.773Z,11.51
2023-04-01T23:12:06.243Z,11.60
2023-04-01T23:14:55.682Z,11.60
2023-04-01T23:17:47.078Z,11.69
2023-04-01T23:20:19.940Z,11.82
2023-04-01T23:23:09.041Z,11.73
2023-04-01T23:25:50.684Z,11.69
2023-04-01T23:28:17.023Z,11.63
2023-04-01T23:30:43.489Z,11.60
2023-04-01T23:33:19.166Z,11.63
2023-04-01T23:35:49.852Z,11.60
2023-04-01T23:38:17.491Z,11.58
2023-04-01T23:40:44.164Z,11.51
2023-04-01T23:43:29.356Z,11.67
2023-04-01T23:45:57.027Z,11.62
2023-04-01T23:48:33.290Z,11.52
2023-04-01T23:51:00.193Z,11.55
2023-04-01T23:53:31.370Z,11.56
2023-04-01T23:55:57.841Z,11.53
2023-04-01T23:58:47.282Z,11.57
